Flight Number: AVA1538 Duration: 8:30
Departure: Vladivostok Knevichi (UHWW) at 22:00 Distance: 3533.05 Nm
Arrival: St. Peterburg (ULLI) at 06:30 Equipment: A340

Weather Information
Vladivostok, Russia (UHWW) 43-07N 131-56E 183M Oct 22, 2020 - 08:00 AM EDT / 2020.10.22 1200 UTC
Wind: from the N (360 degrees) at 7 MPH (6 KT):0
Visibility: 5 mile(s):0 Temperature: 48 F (9 C) Dew Point: 33 F (1 C) Relative Humidity: 57% Pressure (altimeter): 29.88 in. Hg (1012 hPa)
ob: UHWW 221200Z 36003MPS 9000 NSC 09/01 Q1012 R25L/0///70 NOSIG RMK QFE758 cycle: 12
Sunrise: 21:38 Sunset: 08:13 (UTC)

St. Peterburg, Russia (ULLI) 59-58N 030-18E 6M Oct 22, 2020 - 08:00 AM EDT / 2020.10.22 1200 UTC
Wind: from the SE (140 degrees) at 9 MPH (8 KT) (direction variable):0
Visibility: 4 mile(s):0
Sky conditions: overcast Weather: light rain showers; Cumulonimbus clouds observed Temperature: 44 F (7 C) Dew Point: 41 F (5 C) Relative Humidity: 87% Pressure (altimeter): 29.50 in. Hg (0999 hPa)
ob: ULLI 221200Z 14004MPS 110V170 7000 -SHRA BKN008 BKN018CB OVC032 07/05 Q0999 R10R/290050 NOSIG cycle: 12
Sunrise: 05:02 Sunset: 14:24 (UTC)

TAF:2020/10/22 12:21 TAF TAF ULLI 221057Z 2212/2312 13005MPS 6000 -RA BKN010 BKN016 TEMPO 2212/2219 15006G13MPS 3100 -SHRA BR BKN005 BKN013CB BECMG 2219/2220 24005MPS BKN007 BKN015 TEMPO 2220/2308 25006G13MPS 3100 -SHRA BR BKN005 BKN013CB BECMG 2308/2310 BKN011 TEMPO 2310/2312 -SHRA BKN007 BKN016CB

Previous Pireps for this route
Date Aircraft Flight time Fuel used Landing rate On time
2015-10-23B74709.04200918-381Charter
(pireps marked green are flown by you)

Route map